createdAt,value
2024-01-06T00:00:50.355Z,29.40
2024-01-06T00:03:22.027Z,30.60
2024-01-06T00:05:54.192Z,30.73
2024-01-06T00:08:24.706Z,28.67
2024-01-06T00:10:56.541Z,30.40
2024-01-06T00:13:29.112Z,29.03
2024-01-06T00:16:00.126Z,28.97
2024-01-06T00:18:32.183Z,28.30
2024-01-06T00:21:03.091Z,27.30
2024-01-06T00:23:33.607Z,27.93
2024-01-06T00:26:04.287Z,26.43
2024-01-06T00:28:34.976Z,27.57
2024-01-06T00:31:06.962Z,27.27
2024-01-06T00:33:37.601Z,28.07
2024-01-06T00:36:09.674Z,28.70
2024-01-06T00:38:40.235Z,27.33
2024-01-06T00:41:10.770Z,27.10
2024-01-06T00:43:42.610Z,27.80
2024-01-06T00:46:13.579Z,26.60
2024-01-06T00:48:44.719Z,27.87
2024-01-06T00:51:15.332Z,27.58
2024-01-06T00:53:46.902Z,28.17
2024-01-06T00:56:17.811Z,28.27
2024-01-06T00:58:48.345Z,26.83
2024-01-06T01:01:21.479Z,26.73
2024-01-06T01:03:51.180Z,26.93
2024-01-06T01:06:22.585Z,27.73
2024-01-06T01:08:53.129Z,27.20
2024-01-06T01:11:23.636Z,27.43
2024-01-06T01:13:54.393Z,27.83
2024-01-06T01:16:26.291Z,27.87
2024-01-06T01:18:56.946Z,27.37
2024-01-06T01:21:27.700Z,27.43
2024-01-06T01:23:58.353Z,28.67
2024-01-06T01:26:28.879Z,27.10
2024-01-06T01:28:59.580Z,28.10
2024-01-06T01:31:30.495Z,27.57
2024-01-06T01:34:01.198Z,27.77
2024-01-06T01:36:31.739Z,26.20
2024-01-06T01:39:02.283Z,24.63
2024-01-06T01:41:32.959Z,26.47
2024-01-06T01:44:03.624Z,26.70
2024-01-06T01:46:34.465Z,25.90
2024-01-06T01:49:05.372Z,26.27
2024-01-06T01:51:37.078Z,26.43
2024-01-06T01:54:08.920Z,25.27
2024-01-06T01:56:41.949Z,25.70
2024-01-06T01:59:15.332Z,25.33
2024-01-06T02:01:46.319Z,25.33
2024-01-06T02:04:17.024Z,25.90
2024-01-06T02:06:47.688Z,26.23
2024-01-06T02:09:18.387Z,26.03
2024-01-06T02:11:50.106Z,25.23
2024-01-06T02:14:20.799Z,24.70
2024-01-06T02:16:51.344Z,25.30
2024-01-06T02:19:22.116Z,24.90
2024-01-06T02:21:55.778Z,25.87
2024-01-06T02:24:26.409Z,24.83
2024-01-06T02:26:57.828Z,24.40
2024-01-06T02:29:28.281Z,25.43
2024-01-06T02:31:59.863Z,25.53
2024-01-06T02:34:31.917Z,24.27
2024-01-06T02:37:02.439Z,23.67
2024-01-06T02:39:32.974Z,22.67
2024-01-06T02:42:03.525Z,23.60
2024-01-06T02:44:34.052Z,23.63
2024-01-06T02:47:04.629Z,22.83
2024-01-06T02:49:35.305Z,24.47
2024-01-06T02:52:06.560Z,23.17
2024-01-06T02:54:37.145Z,25.07
2024-01-06T02:57:08.029Z,23.90
2024-01-06T02:59:38.591Z,25.27
2024-01-06T03:02:09.207Z,23.33
2024-01-06T03:04:39.708Z,24.00
2024-01-06T03:07:10.329Z,23.43
2024-01-06T03:09:41.043Z,24.20
2024-01-06T03:12:11.803Z,25.53
2024-01-06T03:14:42.301Z,25.13
2024-01-06T03:17:12.778Z,23.77
2024-01-06T03:19:43.536Z,23.77
2024-01-06T03:22:14.006Z,24.53
2024-01-06T03:24:44.598Z,23.93
2024-01-06T03:27:15.256Z,24.13
2024-01-06T03:29:46.814Z,24.00
2024-01-06T03:32:17.547Z,24.40
2024-01-06T03:34:48.199Z,22.97
2024-01-06T03:37:18.657Z,24.33
2024-01-06T03:39:49.258Z,24.77
2024-01-06T03:42:19.864Z,24.43
2024-01-06T03:44:50.448Z,24.50
2024-01-06T03:47:21.215Z,23.50
2024-01-06T03:49:51.883Z,25.30
2024-01-06T03:52:22.422Z,24.80
2024-01-06T03:54:53.008Z,24.43
2024-01-06T03:57:23.595Z,24.37
2024-01-06T03:59:54.475Z,24.60
2024-01-06T04:02:26.675Z,26.07
2024-01-06T04:04:57.176Z,24.40
2024-01-06T04:07:29.276Z,25.83
2024-01-06T04:10:00.173Z,24.97
2024-01-06T04:12:30.802Z,25.17
2024-01-06T04:15:01.272Z,25.53
2024-01-06T04:17:32.137Z,25.70
2024-01-06T04:20:02.587Z,24.10
2024-01-06T04:22:33.101Z,26.00
2024-01-06T04:25:03.657Z,24.67
2024-01-06T04:27:35.306Z,25.23
2024-01-06T04:30:06.317Z,26.20
2024-01-06T04:32:36.938Z,25.33
2024-01-06T04:35:07.878Z,26.23
2024-01-06T04:37:38.810Z,25.90
2024-01-06T04:40:09.675Z,25.13
2024-01-06T04:42:40.320Z,24.87
2024-01-06T04:45:11.376Z,24.13
2024-01-06T04:47:42.004Z,25.93
2024-01-06T04:50:12.618Z,25.63
2024-01-06T04:52:43.136Z,25.20
2024-01-06T04:55:13.638Z,26.47
2024-01-06T04:57:44.390Z,26.30
2024-01-06T05:00:15.882Z,26.83
2024-01-06T05:02:46.971Z,26.13
2024-01-06T05:05:17.505Z,27.10
2024-01-06T05:07:48.064Z,26.90
2024-01-06T05:10:18.886Z,27.33
2024-01-06T05:12:49.556Z,25.53
2024-01-06T05:15:20.558Z,26.83
2024-01-06T05:17:52.663Z,26.80
2024-01-06T05:20:23.239Z,27.07
2024-01-06T05:22:53.748Z,26.83
2024-01-06T05:25:24.207Z,27.37
2024-01-06T05:27:54.824Z,29.47
2024-01-06T05:30:25.487Z,28.03
2024-01-06T05:32:56.186Z,27.87
2024-01-06T05:35:26.841Z,27.33
2024-01-06T05:37:57.671Z,28.20
2024-01-06T05:40:28.098Z,28.93
2024-01-06T05:43:00.681Z,29.73
2024-01-06T05:45:31.560Z,29.23
2024-01-06T05:48:02.585Z,28.37
2024-01-06T05:50:33.121Z,28.53
2024-01-06T05:53:03.675Z,28.37
2024-01-06T05:55:34.915Z,28.03
2024-01-06T05:58:08.545Z,29.30
2024-01-06T06:00:39.739Z,28.33
2024-01-06T06:03:10.379Z,28.37
2024-01-06T06:05:40.913Z,30.40
2024-01-06T06:08:11.499Z,30.73
2024-01-06T06:10:43.748Z,30.00
2024-01-06T06:13:14.351Z,27.17
2024-01-06T06:15:44.996Z,27.77
2024-01-06T06:18:15.604Z,28.50
2024-01-06T06:20:46.167Z,27.33
2024-01-06T06:23:16.656Z,29.30
2024-01-06T06:25:47.140Z,27.53
2024-01-06T06:28:17.637Z,25.67
2024-01-06T06:30:48.399Z,27.93
2024-01-06T06:33:19.021Z,27.10
2024-01-06T06:35:49.710Z,27.70
2024-01-06T06:38:20.307Z,27.67
2024-01-06T06:40:50.886Z,27.20
2024-01-06T06:43:21.499Z,26.40
2024-01-06T06:45:52.107Z,26.37
2024-01-06T06:48:23.879Z,25.97
2024-01-06T06:50:54.365Z,28.53
2024-01-06T06:53:24.938Z,27.43
2024-01-06T06:55:55.490Z,26.77
2024-01-06T06:58:26.176Z,26.67
2024-01-06T07:00:56.788Z,26.67
2024-01-06T07:03:28.004Z,29.83
2024-01-06T07:05:58.747Z,27.43
2024-01-06T07:08:29.467Z,28.53
2024-01-06T07:11:00.074Z,26.00
2024-01-06T07:13:30.563Z,26.87
2024-01-06T07:16:11.552Z,28.23
2024-01-06T07:18:34.084Z,26.10
2024-01-06T07:21:07.544Z,27.00
2024-01-06T07:23:38.023Z,27.93
2024-01-06T07:26:09.211Z,27.17
2024-01-06T07:28:39.748Z,26.93
2024-01-06T07:31:10.404Z,29.17
2024-01-06T07:33:41.218Z,28.47
2024-01-06T07:36:11.854Z,29.03
2024-01-06T07:38:42.503Z,28.17
2024-01-06T07:41:13.366Z,28.93
2024-01-06T07:43:43.832Z,28.20
2024-01-06T07:46:15.656Z,28.97
2024-01-06T07:48:46.902Z,27.73
2024-01-06T07:51:18.167Z,26.23
2024-01-06T07:53:49.010Z,25.70
2024-01-06T07:56:19.668Z,28.63
2024-01-06T07:58:50.345Z,26.07
2024-01-06T08:01:20.991Z,28.00
2024-01-06T08:03:51.695Z,27.03
2024-01-06T08:06:22.726Z,28.60
2024-01-06T08:08:53.369Z,27.53
2024-01-06T08:11:26.813Z,27.83
2024-01-06T08:13:57.369Z,29.13
2024-01-06T08:16:28.035Z,27.70
2024-01-06T08:18:58.699Z,27.67
2024-01-06T08:21:29.474Z,28.17
2024-01-06T08:24:00.049Z,30.87
2024-01-06T08:26:30.765Z,28.20
2024-01-06T08:29:01.487Z,27.73
2024-01-06T08:31:32.071Z,27.17
2024-01-06T08:34:03.172Z,28.33
2024-01-06T08:36:34.019Z,27.07
2024-01-06T08:39:04.983Z,26.93
2024-01-06T08:41:35.570Z,26.93
2024-01-06T08:44:12.830Z,28.27
2024-01-06T08:46:43.398Z,27.80
2024-01-06T08:49:14.139Z,27.13
2024-01-06T08:51:45.282Z,26.83
2024-01-06T08:54:16.002Z,27.73
2024-01-06T08:56:46.760Z,28.30
2024-01-06T08:59:17.347Z,26.80
2024-01-06T09:01:50.266Z,25.23
2024-01-06T09:04:20.186Z,24.43
2024-01-06T09:06:51.859Z,26.57
2024-01-06T09:09:25.608Z,28.40
2024-01-06T09:11:56.358Z,27.93
2024-01-06T09:14:31.429Z,27.80
2024-01-06T09:17:02.950Z,26.33
2024-01-06T09:19:33.533Z,26.37
2024-01-06T09:22:04.219Z,27.53
2024-01-06T09:24:34.826Z,26.63
2024-01-06T09:27:05.530Z,26.77
2024-01-06T09:29:36.111Z,27.60
2024-01-06T09:32:06.761Z,25.27
2024-01-06T09:34:40.000Z,26.03
2024-01-06T09:37:09.380Z,25.60
2024-01-06T09:39:40.674Z,26.07
2024-01-06T09:42:12.511Z,25.27
2024-01-06T09:44:43.367Z,25.40
2024-01-06T09:47:14.709Z,27.97
2024-01-06T09:49:51.357Z,27.80
2024-01-06T09:52:24.349Z,26.73
2024-01-06T09:54:56.936Z,28.53
2024-01-06T09:57:28.504Z,27.30
2024-01-06T10:00:00.582Z,28.17
2024-01-06T10:02:32.733Z,26.27
2024-01-06T10:05:03.852Z,26.03
2024-01-06T10:07:34.948Z,27.57
2024-01-06T10:10:06.426Z,27.37
2024-01-06T10:12:41.844Z,26.57
2024-01-06T10:15:13.498Z,26.13
2024-01-06T10:17:44.380Z,27.77
2024-01-06T10:20:16.509Z,27.40
2024-01-06T10:22:47.772Z,25.43
2024-01-06T10:25:19.400Z,26.77
2024-01-06T10:27:50.016Z,25.53
2024-01-06T10:30:21.590Z,24.87
2024-01-06T10:32:52.479Z,24.40
2024-01-06T10:35:23.071Z,26.70
2024-01-06T10:37:55.877Z,25.10
2024-01-06T10:40:26.620Z,26.90
2024-01-06T10:42:59.027Z,26.83
2024-01-06T10:45:35.040Z,26.60
2024-01-06T10:48:07.957Z,24.53
2024-01-06T10:50:39.166Z,24.67
2024-01-06T10:53:11.044Z,26.23
2024-01-06T10:55:42.159Z,24.83
2024-01-06T10:58:15.058Z,25.13
2024-01-06T11:00:45.682Z,24.33
2024-01-06T11:03:16.639Z,24.93
2024-01-06T11:05:47.424Z,24.23
2024-01-06T11:08:21.388Z,24.97
2024-01-06T11:10:52.189Z,24.73
2024-01-06T11:13:26.512Z,24.63
2024-01-06T11:15:57.145Z,25.10
2024-01-06T11:18:39.854Z,23.97
2024-01-06T11:21:26.901Z,23.03
2024-01-06T11:24:12.560Z,25.13
2024-01-06T11:26:45.445Z,26.13
2024-01-06T11:29:16.144Z,24.83
2024-01-06T11:32:06.379Z,23.30
2024-01-06T11:34:39.210Z,25.17
2024-01-06T11:37:11.899Z,24.50
2024-01-06T11:39:46.218Z,24.80
2024-01-06T11:42:16.686Z,22.27
2024-01-06T11:44:49.111Z,22.70
2024-01-06T11:47:21.883Z,23.17
2024-01-06T11:49:56.194Z,25.93
2024-01-06T11:52:26.792Z,25.70
2024-01-06T11:54:58.620Z,24.13
2024-01-06T11:57:31.369Z,27.53
2024-01-06T12:00:04.991Z,27.17
2024-01-06T12:02:38.115Z,25.73
2024-01-06T12:05:21.512Z,25.23
2024-01-06T12:07:59.110Z,26.07
2024-01-06T12:10:31.345Z,24.27
2024-01-06T12:13:06.689Z,24.40
2024-01-06T12:15:39.863Z,26.37
2024-01-06T12:18:11.280Z,25.97
2024-01-06T12:20:43.936Z,23.73
2024-01-06T12:23:17.416Z,23.27
2024-01-06T12:25:50.762Z,24.43
2024-01-06T12:28:21.749Z,24.00
2024-01-06T12:30:52.518Z,24.57
2024-01-06T12:33:23.792Z,24.47
2024-01-06T12:35:54.749Z,22.70
2024-01-06T12:38:27.896Z,23.77
2024-01-06T12:40:58.555Z,22.83
2024-01-06T12:43:29.211Z,23.57
2024-01-06T12:46:00.556Z,24.57
2024-01-06T12:48:31.172Z,23.43
2024-01-06T12:51:01.662Z,24.53
2024-01-06T12:53:32.281Z,24.27
2024-01-06T12:56:03.182Z,24.50
2024-01-06T12:58:34.441Z,23.00
2024-01-06T13:01:05.328Z,23.63
2024-01-06T13:03:36.419Z,19.17
2024-01-06T13:06:09.070Z,23.30
2024-01-06T13:08:40.868Z,21.90
2024-01-06T13:11:11.759Z,21.70
2024-01-06T13:13:43.507Z,22.10
2024-01-06T13:16:14.024Z,22.03
2024-01-06T13:18:45.722Z,22.43
2024-01-06T13:21:18.703Z,21.17
2024-01-06T13:23:49.345Z,21.53
2024-01-06T13:26:20.037Z,23.23
2024-01-06T13:28:50.550Z,21.73
2024-01-06T13:31:21.919Z,21.70
2024-01-06T13:33:54.364Z,20.53
2024-01-06T13:36:25.582Z,20.73
2024-01-06T13:38:56.460Z,20.37
2024-01-06T13:41:27.833Z,20.83
2024-01-06T13:44:00.820Z,21.23
2024-01-06T13:46:31.375Z,19.23
2024-01-06T13:49:03.214Z,21.63
2024-01-06T13:51:33.921Z,20.90
2024-01-06T13:54:04.523Z,20.93
2024-01-06T13:56:35.258Z,19.83
2024-01-06T13:59:07.154Z,20.27
2024-01-06T14:01:37.866Z,19.50
2024-01-06T14:04:09.002Z,20.00
2024-01-06T14:06:41.164Z,19.40
2024-01-06T14:09:12.989Z,20.40
2024-01-06T14:11:44.072Z,19.63
2024-01-06T14:14:14.683Z,20.60
2024-01-06T14:16:47.022Z,19.67
2024-01-06T14:19:17.622Z,21.03
2024-01-06T14:21:48.370Z,19.40
2024-01-06T14:24:23.611Z,21.13
2024-01-06T14:26:56.877Z,18.30
2024-01-06T14:29:27.556Z,20.00
2024-01-06T14:31:58.701Z,18.83
2024-01-06T14:34:29.763Z,18.13
2024-01-06T14:37:00.396Z,18.97
2024-01-06T14:39:31.106Z,18.13
2024-01-06T14:42:01.601Z,19.90
2024-01-06T14:44:35.494Z,19.40
2024-01-06T14:47:07.748Z,19.80
2024-01-06T14:49:38.447Z,17.93
2024-01-06T14:52:09.269Z,18.80
2024-01-06T14:54:40.299Z,18.20
2024-01-06T14:57:10.835Z,15.80
2024-01-06T14:59:41.457Z,16.67
2024-01-06T15:02:12.151Z,18.10
2024-01-06T15:04:42.817Z,17.73
2024-01-06T15:07:13.548Z,16.57
2024-01-06T15:09:44.569Z,15.27
2024-01-06T15:12:15.127Z,15.37
2024-01-06T15:14:45.728Z,14.30
2024-01-06T15:17:16.333Z,14.20
2024-01-06T15:19:50.278Z,14.97
2024-01-06T15:22:21.081Z,14.30
2024-01-06T15:24:57.496Z,14.27
2024-01-06T15:27:24.134Z,15.08
2024-01-06T15:29:54.603Z,14.27
2024-01-06T15:32:25.110Z,12.37
2024-01-06T15:34:55.669Z,14.00
2024-01-06T15:37:26.340Z,13.07
2024-01-06T15:39:56.863Z,11.80
2024-01-06T15:42:27.988Z,12.00
2024-01-06T15:44:58.490Z,12.80
2024-01-06T15:47:29.121Z,12.17
2024-01-06T15:49:59.644Z,11.63
2024-01-06T15:52:30.199Z,11.25
2024-01-06T15:55:00.819Z,11.30
2024-01-06T15:57:33.200Z,11.17
2024-01-06T16:00:05.563Z,10.53
2024-01-06T16:02:37.788Z,11.47
2024-01-06T16:05:09.857Z,10.43
2024-01-06T16:07:40.754Z,10.17
2024-01-06T16:10:12.241Z,10.10
2024-01-06T16:12:43.297Z,10.83
2024-01-06T16:15:14.053Z,9.77
2024-01-06T16:17:44.702Z,10.30
2024-01-06T16:20:15.562Z,9.43
2024-01-06T16:22:47.411Z,9.73
2024-01-06T16:25:18.122Z,10.03
2024-01-06T16:27:48.811Z,9.00
2024-01-06T16:30:19.709Z,8.70
2024-01-06T16:32:52.678Z,8.10
2024-01-06T16:35:23.223Z,9.17
2024-01-06T16:37:54.735Z,8.57
2024-01-06T16:40:25.443Z,8.83
2024-01-06T16:42:56.162Z,8.73
2024-01-06T16:45:28.065Z,8.60
2024-01-06T16:47:59.087Z,8.80
2024-01-06T16:50:29.628Z,7.97
2024-01-06T16:53:00.145Z,8.40
2024-01-06T16:55:31.029Z,8.67
2024-01-06T16:58:02.336Z,8.47
2024-01-06T17:00:32.878Z,8.60
2024-01-06T17:03:03.442Z,8.53
2024-01-06T17:05:34.210Z,8.00
2024-01-06T17:08:04.998Z,7.83
2024-01-06T17:10:35.564Z,8.50
2024-01-06T17:13:07.117Z,7.80
2024-01-06T17:15:39.209Z,7.87
2024-01-06T17:18:09.739Z,7.63
2024-01-06T17:20:40.627Z,8.93
2024-01-06T17:23:13.513Z,8.87
2024-01-06T17:25:44.400Z,8.53
2024-01-06T17:28:15.756Z,9.10
2024-01-06T17:30:46.376Z,8.10
2024-01-06T17:33:17.185Z,8.33
2024-01-06T17:35:47.878Z,7.60
2024-01-06T17:38:18.399Z,7.33
2024-01-06T17:40:48.952Z,8.07
2024-01-06T17:43:20.939Z,7.53
2024-01-06T17:45:51.505Z,7.47
2024-01-06T17:48:22.742Z,7.20
2024-01-06T17:50:53.394Z,7.23
2024-01-06T17:53:24.137Z,7.13
2024-01-06T17:55:54.773Z,7.53
2024-01-06T17:58:25.592Z,7.60
2024-01-06T18:00:58.453Z,7.67
2024-01-06T18:03:29.289Z,7.73
2024-01-06T18:05:59.840Z,8.77
2024-01-06T18:08:30.939Z,7.73
2024-01-06T18:11:03.054Z,8.33
2024-01-06T18:13:35.041Z,8.10
2024-01-06T18:16:07.268Z,9.10
2024-01-06T18:18:38.037Z,9.37
2024-01-06T18:21:09.913Z,8.80
2024-01-06T18:23:40.431Z,8.67
2024-01-06T18:26:11.366Z,8.17
2024-01-06T18:28:42.040Z,8.50
2024-01-06T18:31:12.721Z,8.83
2024-01-06T18:33:43.721Z,8.23
2024-01-06T18:36:14.557Z,8.53
2024-01-06T18:38:45.153Z,8.60
2024-01-06T18:41:15.665Z,9.10
2024-01-06T18:43:46.407Z,8.53
2024-01-06T18:46:17.276Z,8.67
2024-01-06T18:48:49.881Z,9.20
2024-01-06T18:51:23.068Z,9.47
2024-01-06T18:53:54.170Z,9.53
2024-01-06T18:56:26.504Z,8.73
2024-01-06T18:58:57.094Z,9.60
2024-01-06T19:01:28.119Z,9.97
2024-01-06T19:03:59.078Z,9.83
2024-01-06T19:06:31.016Z,9.37
2024-01-06T19:09:01.549Z,8.77
2024-01-06T19:11:33.593Z,9.30
2024-01-06T19:14:04.336Z,8.63
2024-01-06T19:16:37.377Z,8.90
2024-01-06T19:19:09.180Z,8.83
2024-01-06T19:21:41.227Z,8.40
2024-01-06T19:24:19.926Z,8.40
2024-01-06T19:26:45.093Z,8.17
2024-01-06T19:29:17.114Z,7.73
2024-01-06T19:31:47.939Z,7.93
2024-01-06T19:34:19.964Z,7.97
2024-01-06T19:36:51.296Z,7.63
2024-01-06T19:39:23.873Z,7.10
2024-01-06T19:41:54.688Z,8.50
2024-01-06T19:44:25.249Z,6.97
2024-01-06T19:46:57.362Z,6.70
2024-01-06T19:49:28.128Z,7.03
2024-01-06T19:51:58.837Z,7.13
2024-01-06T19:54:31.460Z,7.00
2024-01-06T19:57:02.332Z,7.73
2024-01-06T19:59:34.787Z,6.87
2024-01-06T20:02:07.092Z,6.83
2024-01-06T20:04:39.261Z,6.03
2024-01-06T20:07:09.867Z,6.87
2024-01-06T20:09:43.045Z,6.37
2024-01-06T20:12:14.430Z,6.60
2024-01-06T20:14:47.222Z,6.67
2024-01-06T20:17:18.034Z,7.10
2024-01-06T20:19:49.592Z,6.83
2024-01-06T20:22:20.118Z,6.57
2024-01-06T20:24:50.997Z,7.10
2024-01-06T20:27:23.138Z,6.80
2024-01-06T20:29:54.367Z,7.23
2024-01-06T20:32:25.265Z,7.30
2024-01-06T20:34:56.937Z,7.53
2024-01-06T20:37:27.707Z,7.20
2024-01-06T20:39:58.385Z,7.60
2024-01-06T20:42:30.540Z,6.97
2024-01-06T20:45:01.022Z,7.33
2024-01-06T20:47:33.813Z,8.10
2024-01-06T20:50:04.498Z,7.60
2024-01-06T20:52:35.097Z,7.90
2024-01-06T20:55:06.060Z,8.13
2024-01-06T20:57:36.677Z,8.03
2024-01-06T21:00:08.165Z,8.50
2024-01-06T21:02:38.637Z,7.80
2024-01-06T21:05:10.669Z,8.80
2024-01-06T21:07:42.552Z,7.50
2024-01-06T21:10:13.313Z,7.43
2024-01-06T21:12:44.142Z,6.87
2024-01-06T21:15:16.460Z,6.50
2024-01-06T21:17:47.014Z,6.40
2024-01-06T21:20:17.635Z,5.90
2024-01-06T21:22:48.129Z,5.70
2024-01-06T21:25:24.332Z,5.03
2024-01-06T21:27:54.969Z,5.30
2024-01-06T21:30:27.147Z,5.00
2024-01-06T21:32:59.554Z,5.60
2024-01-06T21:35:31.208Z,5.60
2024-01-06T21:38:04.404Z,5.17
2024-01-06T21:40:34.883Z,4.90
2024-01-06T21:43:06.494Z,5.53
2024-01-06T21:45:37.173Z,4.40
2024-01-06T21:48:08.030Z,4.23
2024-01-06T21:50:38.593Z,3.87
2024-01-06T21:53:09.963Z,4.20
2024-01-06T21:55:40.505Z,4.20
2024-01-06T21:58:11.906Z,4.57
2024-01-06T22:00:43.106Z,4.70
2024-01-06T22:03:13.727Z,4.00
2024-01-06T22:05:44.427Z,4.00
2024-01-06T22:08:14.992Z,3.80
2024-01-06T22:10:45.453Z,4.03
2024-01-06T22:13:15.947Z,4.20
2024-01-06T22:15:46.474Z,3.70
2024-01-06T22:18:17.148Z,4.50
2024-01-06T22:20:47.646Z,3.93
2024-01-06T22:23:18.191Z,3.67
2024-01-06T22:25:48.742Z,4.10
2024-01-06T22:28:19.353Z,3.70
2024-01-06T22:30:49.926Z,3.80
2024-01-06T22:33:20.479Z,3.63
2024-01-06T22:35:51.111Z,3.63
2024-01-06T22:38:21.843Z,3.37
2024-01-06T22:40:52.414Z,3.73
2024-01-06T22:43:23.188Z,4.40
2024-01-06T22:45:53.687Z,3.50
2024-01-06T22:48:24.987Z,3.80
2024-01-06T22:50:55.510Z,3.63
2024-01-06T22:53:26.183Z,4.40
2024-01-06T22:55:56.821Z,3.70
2024-01-06T22:58:28.122Z,3.50
2024-01-06T23:00:59.555Z,3.60
2024-01-06T23:03:30.282Z,3.53
2024-01-06T23:06:00.841Z,3.30
2024-01-06T23:08:31.304Z,3.73
2024-01-06T23:11:02.054Z,3.30
2024-01-06T23:13:33.669Z,3.60
2024-01-06T23:16:04.767Z,3.30
2024-01-06T23:18:35.550Z,3.40
2024-01-06T23:21:06.543Z,3.70
2024-01-06T23:23:40.066Z,3.40
2024-01-06T23:26:10.895Z,3.57
2024-01-06T23:28:41.746Z,3.20
2024-01-06T23:31:12.354Z,3.67
2024-01-06T23:33:43.070Z,3.53
2024-01-06T23:36:13.608Z,3.47
2024-01-06T23:38:44.156Z,3.70
2024-01-06T23:41:15.584Z,3.23
2024-01-06T23:43:46.457Z,3.90
2024-01-06T23:46:16.945Z,3.30
2024-01-06T23:48:47.510Z,3.77
2024-01-06T23:51:18.953Z,3.90
2024-01-06T23:53:52.353Z,3.40
2024-01-06T23:56:21.518Z,4.07
2024-01-06T23:58:51.997Z,4.43
